sensor_id;sensor_type;location;lat;lon;timestamp;temperature;humidity
18593;DHT22;9426;54.118;17.948;2022-07-12T00:04:03;11.20;99.90
18593;DHT22;9426;54.118;17.948;2022-07-12T00:09:27;11.30;99.90
18593;DHT22;9426;54.118;17.948;2022-07-12T00:14:52;11.40;99.90
18593;DHT22;9426;54.118;17.948;2022-07-12T00:20:16;11.30;99.90
18593;DHT22;9426;54.118;17.948;2022-07-12T00:25:40;11.30;99.90
18593;DHT22;9426;54.118;17.948;2022-07-12T00:31:06;11.30;99.90
18593;DHT22;9426;54.118;17.948;2022-07-12T00:36:30;11.40;99.90
18593;DHT22;9426;54.118;17.948;2022-07-12T00:41:55;11.40;99.90
18593;DHT22;9426;54.118;17.948;2022-07-12T00:47:29;11.40;99.90
18593;DHT22;9426;54.118;17.948;2022-07-12T00:52:56;11.40;99.90
18593;DHT22;9426;54.118;17.948;2022-07-12T00:58:21;11.60;99.90
18593;DHT22;9426;54.118;17.948;2022-07-12T01:03:47;11.50;99.90
18593;DHT22;9426;54.118;17.948;2022-07-12T01:09:11;11.40;99.90
18593;DHT22;9426;54.118;17.948;2022-07-12T01:14:36;11.40;99.90
18593;DHT22;9426;54.118;17.948;2022-07-12T01:20:03;11.40;99.90
18593;DHT22;9426;54.118;17.948;2022-07-12T01:25:29;11.40;99.90
18593;DHT22;9426;54.118;17.948;2022-07-12T01:30:53;11.40;99.90
18593;DHT22;9426;54.118;17.948;2022-07-12T01:36:16;11.50;99.90
18593;DHT22;9426;54.118;17.948;2022-07-12T01:41:41;11.50;99.90
18593;DHT22;9426;54.118;17.948;2022-07-12T01:47:05;11.50;99.90
18593;DHT22;9426;54.118;17.948;2022-07-12T01:52:28;11.40;99.90
18593;DHT22;9426;54.118;17.948;2022-07-12T01:57:53;11.50;99.90
18593;DHT22;9426;54.118;17.948;2022-07-12T02:03:17;11.60;99.90
18593;DHT22;9426;54.118;17.948;2022-07-12T02:08:41;11.60;99.90
18593;DHT22;9426;54.118;17.948;2022-07-12T02:14:06;11.70;99.90
18593;DHT22;9426;54.118;17.948;2022-07-12T02:19:30;11.60;99.90
18593;DHT22;9426;54.118;17.948;2022-07-12T02:24:53;11.70;99.90
18593;DHT22;9426;54.118;17.948;2022-07-12T02:30:18;11.70;99.90
18593;DHT22;9426;54.118;17.948;2022-07-12T02:35:42;11.70;99.90
18593;DHT22;9426;54.118;17.948;2022-07-12T02:41:06;11.60;99.90
18593;DHT22;9426;54.118;17.948;2022-07-12T02:51:55;11.40;99.90
18593;DHT22;9426;54.118;17.948;2022-07-12T02:57:19;11.30;99.90
18593;DHT22;9426;54.118;17.948;2022-07-12T03:02:43;11.30;99.90
18593;DHT22;9426;54.118;17.948;2022-07-12T03:08:07;11.40;99.90
18593;DHT22;9426;54.118;17.948;2022-07-12T03:13:31;12.10;99.90
18593;DHT22;9426;54.118;17.948;2022-07-12T03:18:55;11.60;99.90
18593;DHT22;9426;54.118;17.948;2022-07-12T03:24:19;11.70;99.90
18593;DHT22;9426;54.118;17.948;2022-07-12T03:29:42;11.80;99.90
18593;DHT22;9426;54.118;17.948;2022-07-12T03:35:08;11.90;99.90
18593;DHT22;9426;54.118;17.948;2022-07-12T03:40:32;11.90;99.90
18593;DHT22;9426;54.118;17.948;2022-07-12T03:45:56;12.00;99.90
18593;DHT22;9426;54.118;17.948;2022-07-12T03:51:21;12.10;99.90
18593;DHT22;9426;54.118;17.948;2022-07-12T03:56:44;12.20;99.90
18593;DHT22;9426;54.118;17.948;2022-07-12T04:02:25;12.40;99.90
18593;DHT22;9426;54.118;17.948;2022-07-12T04:07:49;12.50;99.90
18593;DHT22;9426;54.118;17.948;2022-07-12T04:13:13;12.60;99.90
18593;DHT22;9426;54.118;17.948;2022-07-12T04:18:36;12.70;99.90
18593;DHT22;9426;54.118;17.948;2022-07-12T04:24:01;12.90;99.90
18593;DHT22;9426;54.118;17.948;2022-07-12T04:29:24;13.00;99.90
18593;DHT22;9426;54.118;17.948;2022-07-12T04:34:47;13.20;99.90
18593;DHT22;9426;54.118;17.948;2022-07-12T04:40:13;13.40;99.90
18593;DHT22;9426;54.118;17.948;2022-07-12T04:45:36;13.50;99.90
18593;DHT22;9426;54.118;17.948;2022-07-12T04:50:59;13.70;99.90
18593;DHT22;9426;54.118;17.948;2022-07-12T04:56:24;13.80;99.90
18593;DHT22;9426;54.118;17.948;2022-07-12T05:01:48;14.00;99.90
18593;DHT22;9426;54.118;17.948;2022-07-12T05:07:12;14.20;99.90
18593;DHT22;9426;54.118;17.948;2022-07-12T05:12:36;14.30;99.90
18593;DHT22;9426;54.118;17.948;2022-07-12T05:18:00;14.50;99.90
18593;DHT22;9426;54.118;17.948;2022-07-12T05:23:23;14.60;99.90
18593;DHT22;9426;54.118;17.948;2022-07-12T05:28:48;14.80;99.90
18593;DHT22;9426;54.118;17.948;2022-07-12T05:34:11;15.00;99.90
18593;DHT22;9426;54.118;17.948;2022-07-12T05:39:35;15.20;99.90
18593;DHT22;9426;54.118;17.948;2022-07-12T05:45:04;15.50;99.90
18593;DHT22;9426;54.118;17.948;2022-07-12T05:50:28;15.60;99.90
18593;DHT22;9426;54.118;17.948;2022-07-12T05:55:52;15.70;99.90
18593;DHT22;9426;54.118;17.948;2022-07-12T06:01:17;15.80;99.90
18593;DHT22;9426;54.118;17.948;2022-07-12T06:06:41;16.10;99.90
18593;DHT22;9426;54.118;17.948;2022-07-12T06:12:06;16.20;99.90
18593;DHT22;9426;54.118;17.948;2022-07-12T06:17:31;16.50;99.90
18593;DHT22;9426;54.118;17.948;2022-07-12T06:22:55;16.60;99.90
18593;DHT22;9426;54.118;17.948;2022-07-12T06:28:19;16.80;99.90
18593;DHT22;9426;54.118;17.948;2022-07-12T06:33:44;17.00;99.90
18593;DHT22;9426;54.118;17.948;2022-07-12T06:39:08;17.20;99.90
18593;DHT22;9426;54.118;17.948;2022-07-12T06:44:32;17.10;99.90
18593;DHT22;9426;54.118;17.948;2022-07-12T06:49:57;17.30;99.90
18593;DHT22;9426;54.118;17.948;2022-07-12T06:55:20;17.50;99.90
18593;DHT22;9426;54.118;17.948;2022-07-12T07:00:44;17.70;99.90
18593;DHT22;9426;54.118;17.948;2022-07-12T07:06:09;17.70;99.90
18593;DHT22;9426;54.118;17.948;2022-07-12T07:11:34;17.80;99.90
18593;DHT22;9426;54.118;17.948;2022-07-12T07:16:58;18.10;99.90
18593;DHT22;9426;54.118;17.948;2022-07-12T07:22:23;18.30;99.90
18593;DHT22;9426;54.118;17.948;2022-07-12T07:27:46;18.30;99.90
18593;DHT22;9426;54.118;17.948;2022-07-12T07:33:10;18.60;99.90
18593;DHT22;9426;54.118;17.948;2022-07-12T07:38:35;18.90;99.90
18593;DHT22;9426;54.118;17.948;2022-07-12T07:43:59;19.00;99.90
18593;DHT22;9426;54.118;17.948;2022-07-12T07:49:23;19.10;99.90
18593;DHT22;9426;54.118;17.948;2022-07-12T07:54:48;19.40;99.90
18593;DHT22;9426;54.118;17.948;2022-07-12T08:00:12;19.20;99.90
18593;DHT22;9426;54.118;17.948;2022-07-12T08:05:36;19.30;99.90
18593;DHT22;9426;54.118;17.948;2022-07-12T08:11:01;19.20;99.90
18593;DHT22;9426;54.118;17.948;2022-07-12T08:16:24;19.10;99.90
18593;DHT22;9426;54.118;17.948;2022-07-12T08:21:48;19.40;99.90
18593;DHT22;9426;54.118;17.948;2022-07-12T08:27:13;19.70;99.90
18593;DHT22;9426;54.118;17.948;2022-07-12T08:32:36;20.00;99.90
18593;DHT22;9426;54.118;17.948;2022-07-12T08:38:00;20.20;99.90
18593;DHT22;9426;54.118;17.948;2022-07-12T08:43:25;20.70;99.90
18593;DHT22;9426;54.118;17.948;2022-07-12T08:48:52;20.80;99.90
18593;DHT22;9426;54.118;17.948;2022-07-12T08:54:16;20.70;99.90
18593;DHT22;9426;54.118;17.948;2022-07-12T08:59:47;20.20;99.90
18593;DHT22;9426;54.118;17.948;2022-07-12T09:05:11;20.50;99.90
18593;DHT22;9426;54.118;17.948;2022-07-12T09:10:51;20.90;99.90
18593;DHT22;9426;54.118;17.948;2022-07-12T09:16:17;20.40;99.90
18593;DHT22;9426;54.118;17.948;2022-07-12T09:21:49;20.80;99.90
18593;DHT22;9426;54.118;17.948;2022-07-12T09:27:13;21.00;99.90
18593;DHT22;9426;54.118;17.948;2022-07-12T09:32:49;20.90;99.90
18593;DHT22;9426;54.118;17.948;2022-07-12T09:38:30;21.10;99.90
18593;DHT22;9426;54.118;17.948;2022-07-12T09:43:54;21.20;99.90
18593;DHT22;9426;54.118;17.948;2022-07-12T09:49:19;21.10;99.90
18593;DHT22;9426;54.118;17.948;2022-07-12T09:54:49;21.40;99.90
18593;DHT22;9426;54.118;17.948;2022-07-12T10:00:14;21.30;99.90
18593;DHT22;9426;54.118;17.948;2022-07-12T10:05:43;21.60;99.90
18593;DHT22;9426;54.118;17.948;2022-07-12T10:11:06;21.80;99.90
18593;DHT22;9426;54.118;17.948;2022-07-12T10:16:33;21.80;99.90
18593;DHT22;9426;54.118;17.948;2022-07-12T10:22:00;22.20;99.90
18593;DHT22;9426;54.118;17.948;2022-07-12T10:27:31;22.30;99.90
18593;DHT22;9426;54.118;17.948;2022-07-12T10:32:55;22.00;99.90
18593;DHT22;9426;54.118;17.948;2022-07-12T10:38:22;22.00;99.90
18593;DHT22;9426;54.118;17.948;2022-07-12T10:44:02;21.90;99.90
18593;DHT22;9426;54.118;17.948;2022-07-12T10:49:29;22.00;99.90
18593;DHT22;9426;54.118;17.948;2022-07-12T10:55:19;22.20;99.90
18593;DHT22;9426;54.118;17.948;2022-07-12T11:00:42;22.50;99.90
18593;DHT22;9426;54.118;17.948;2022-07-12T11:06:08;22.80;99.90
18593;DHT22;9426;54.118;17.948;2022-07-12T11:11:39;22.80;98.10
18593;DHT22;9426;54.118;17.948;2022-07-12T11:17:02;22.60;97.50
18593;DHT22;9426;54.118;17.948;2022-07-12T11:22:26;22.80;96.70
18593;DHT22;9426;54.118;17.948;2022-07-12T11:27:51;22.90;94.10
18593;DHT22;9426;54.118;17.948;2022-07-12T11:33:14;23.50;94.20
18593;DHT22;9426;54.118;17.948;2022-07-12T11:38:39;23.90;90.30
18593;DHT22;9426;54.118;17.948;2022-07-12T11:44:06;24.10;91.40
18593;DHT22;9426;54.118;17.948;2022-07-12T11:49:29;23.10;88.80
18593;DHT22;9426;54.118;17.948;2022-07-12T11:54:53;23.20;88.10
18593;DHT22;9426;54.118;17.948;2022-07-12T12:00:20;23.30;87.10
18593;DHT22;9426;54.118;17.948;2022-07-12T12:05:46;23.70;90.00
18593;DHT22;9426;54.118;17.948;2022-07-12T12:11:10;23.80;90.00
18593;DHT22;9426;54.118;17.948;2022-07-12T12:16:35;23.50;86.80
18593;DHT22;9426;54.118;17.948;2022-07-12T12:22:00;23.00;88.20
18593;DHT22;9426;54.118;17.948;2022-07-12T12:27:24;24.40;80.00
18593;DHT22;9426;54.118;17.948;2022-07-12T12:32:50;24.60;77.60
18593;DHT22;9426;54.118;17.948;2022-07-12T12:38:15;25.00;78.40
18593;DHT22;9426;54.118;17.948;2022-07-12T12:43:39;25.90;74.70
18593;DHT22;9426;54.118;17.948;2022-07-12T12:49:03;26.90;70.60
18593;DHT22;9426;54.118;17.948;2022-07-12T12:54:34;27.90;65.10
18593;DHT22;9426;54.118;17.948;2022-07-12T12:59:58;28.00;64.70
18593;DHT22;9426;54.118;17.948;2022-07-12T13:05:23;26.70;63.20
18593;DHT22;9426;54.118;17.948;2022-07-12T13:10:47;26.40;63.20
18593;DHT22;9426;54.118;17.948;2022-07-12T13:16:30;27.80;60.40
18593;DHT22;9426;54.118;17.948;2022-07-12T13:21:55;28.10;58.10
18593;DHT22;9426;54.118;17.948;2022-07-12T13:27:19;28.40;56.70
18593;DHT22;9426;54.118;17.948;2022-07-12T13:32:43;27.90;59.20
18593;DHT22;9426;54.118;17.948;2022-07-12T13:38:08;28.90;56.80
18593;DHT22;9426;54.118;17.948;2022-07-12T13:43:32;28.50;57.40
18593;DHT22;9426;54.118;17.948;2022-07-12T13:48:55;28.20;56.30
18593;DHT22;9426;54.118;17.948;2022-07-12T13:54:20;27.10;60.90
18593;DHT22;9426;54.118;17.948;2022-07-12T13:59:44;27.00;59.00
18593;DHT22;9426;54.118;17.948;2022-07-12T14:05:09;27.50;59.10
18593;DHT22;9426;54.118;17.948;2022-07-12T14:10:34;28.50;56.60
18593;DHT22;9426;54.118;17.948;2022-07-12T14:15:59;28.90;57.60
18593;DHT22;9426;54.118;17.948;2022-07-12T14:21:22;29.00;56.20
18593;DHT22;9426;54.118;17.948;2022-07-12T14:26:47;29.50;54.40
18593;DHT22;9426;54.118;17.948;2022-07-12T14:32:14;29.80;52.90
18593;DHT22;9426;54.118;17.948;2022-07-12T14:37:37;29.00;53.60
18593;DHT22;9426;54.118;17.948;2022-07-12T14:43:03;27.80;53.30
18593;DHT22;9426;54.118;17.948;2022-07-12T14:48:27;28.30;55.40
18593;DHT22;9426;54.118;17.948;2022-07-12T14:53:51;29.70;53.80
18593;DHT22;9426;54.118;17.948;2022-07-12T14:59:16;29.40;51.50
18593;DHT22;9426;54.118;17.948;2022-07-12T15:04:40;29.10;52.80
18593;DHT22;9426;54.118;17.948;2022-07-12T15:10:04;29.40;51.90
18593;DHT22;9426;54.118;17.948;2022-07-12T15:15:29;27.80;55.50
18593;DHT22;9426;54.118;17.948;2022-07-12T15:20:52;28.40;53.60
18593;DHT22;9426;54.118;17.948;2022-07-12T15:26:16;29.40;53.50
18593;DHT22;9426;54.118;17.948;2022-07-12T15:31:40;29.50;51.40
18593;DHT22;9426;54.118;17.948;2022-07-12T15:37:04;28.40;52.70
18593;DHT22;9426;54.118;17.948;2022-07-12T15:42:27;28.70;53.00
18593;DHT22;9426;54.118;17.948;2022-07-12T15:47:52;28.90;53.30
18593;DHT22;9426;54.118;17.948;2022-07-12T15:53:16;29.30;51.40
18593;DHT22;9426;54.118;17.948;2022-07-12T15:58:51;29.80;50.70
18593;DHT22;9426;54.118;17.948;2022-07-12T16:04:18;28.90;50.30
18593;DHT22;9426;54.118;17.948;2022-07-12T16:09:45;27.80;52.20
18593;DHT22;9426;54.118;17.948;2022-07-12T16:15:10;28.90;51.40
18593;DHT22;9426;54.118;17.948;2022-07-12T16:20:35;29.30;49.00
18593;DHT22;9426;54.118;17.948;2022-07-12T16:25:58;28.90;50.00
18593;DHT22;9426;54.118;17.948;2022-07-12T16:31:23;28.60;50.80
18593;DHT22;9426;54.118;17.948;2022-07-12T16:37:06;28.70;50.00
18593;DHT22;9426;54.118;17.948;2022-07-12T16:42:30;27.90;51.40
18593;DHT22;9426;54.118;17.948;2022-07-12T16:47:54;26.20;53.80
18593;DHT22;9426;54.118;17.948;2022-07-12T16:53:19;24.90;56.70
18593;DHT22;9426;54.118;17.948;2022-07-12T16:58:43;23.30;60.90
18593;DHT22;9426;54.118;17.948;2022-07-12T17:04:06;22.60;64.80
18593;DHT22;9426;54.118;17.948;2022-07-12T17:09:31;22.20;68.50
18593;DHT22;9426;54.118;17.948;2022-07-12T17:14:55;21.90;68.00
18593;DHT22;9426;54.118;17.948;2022-07-12T17:20:19;21.50;70.50
18593;DHT22;9426;54.118;17.948;2022-07-12T17:25:44;21.20;73.60
18593;DHT22;9426;54.118;17.948;2022-07-12T17:31:09;20.90;73.40
18593;DHT22;9426;54.118;17.948;2022-07-12T17:36:34;20.60;76.40
18593;DHT22;9426;54.118;17.948;2022-07-12T17:41:59;20.40;79.40
18593;DHT22;9426;54.118;17.948;2022-07-12T17:47:22;20.30;82.90
18593;DHT22;9426;54.118;17.948;2022-07-12T17:52:45;20.10;89.50
18593;DHT22;9426;54.118;17.948;2022-07-12T17:58:11;19.90;95.10
18593;DHT22;9426;54.118;17.948;2022-07-12T18:03:52;19.80;99.80
18593;DHT22;9426;54.118;17.948;2022-07-12T18:09:15;19.70;99.90
18593;DHT22;9426;54.118;17.948;2022-07-12T18:14:40;19.50;99.90
18593;DHT22;9426;54.118;17.948;2022-07-12T18:20:09;19.40;99.90
18593;DHT22;9426;54.118;17.948;2022-07-12T18:25:33;19.20;99.90
18593;DHT22;9426;54.118;17.948;2022-07-12T18:30:58;19.10;99.90
18593;DHT22;9426;54.118;17.948;2022-07-12T18:36:23;18.90;99.90
18593;DHT22;9426;54.118;17.948;2022-07-12T18:41:48;18.80;99.90
18593;DHT22;9426;54.118;17.948;2022-07-12T18:47:13;18.60;99.90
18593;DHT22;9426;54.118;17.948;2022-07-12T18:52:36;18.50;99.90
18593;DHT22;9426;54.118;17.948;2022-07-12T18:58:00;18.30;99.90
18593;DHT22;9426;54.118;17.948;2022-07-12T19:03:25;18.30;99.90
18593;DHT22;9426;54.118;17.948;2022-07-12T19:08:48;18.10;99.90
18593;DHT22;9426;54.118;17.948;2022-07-12T19:14:12;17.90;99.90
18593;DHT22;9426;54.118;17.948;2022-07-12T19:19:36;17.70;99.90
18593;DHT22;9426;54.118;17.948;2022-07-12T19:25:00;17.50;99.90
18593;DHT22;9426;54.118;17.948;2022-07-12T19:30:23;17.30;99.90
18593;DHT22;9426;54.118;17.948;2022-07-12T19:35:48;17.00;99.90
18593;DHT22;9426;54.118;17.948;2022-07-12T19:41:11;16.90;99.90
18593;DHT22;9426;54.118;17.948;2022-07-12T19:46:35;16.70;99.90
18593;DHT22;9426;54.118;17.948;2022-07-12T19:51:59;16.70;99.90
18593;DHT22;9426;54.118;17.948;2022-07-12T19:57:23;16.50;99.90
18593;DHT22;9426;54.118;17.948;2022-07-12T20:02:46;16.40;99.90
18593;DHT22;9426;54.118;17.948;2022-07-12T20:08:12;16.30;99.90
18593;DHT22;9426;54.118;17.948;2022-07-12T20:13:37;16.20;99.90
18593;DHT22;9426;54.118;17.948;2022-07-12T20:19:00;16.20;99.90
18593;DHT22;9426;54.118;17.948;2022-07-12T20:24:25;16.10;99.90
18593;DHT22;9426;54.118;17.948;2022-07-12T20:29:49;16.10;99.90
18593;DHT22;9426;54.118;17.948;2022-07-12T20:35:12;16.00;99.90
18593;DHT22;9426;54.118;17.948;2022-07-12T20:40:38;15.90;99.90
18593;DHT22;9426;54.118;17.948;2022-07-12T20:46:01;15.80;99.90
18593;DHT22;9426;54.118;17.948;2022-07-12T20:51:24;15.80;99.90
18593;DHT22;9426;54.118;17.948;2022-07-12T20:56:51;15.80;99.90
18593;DHT22;9426;54.118;17.948;2022-07-12T21:02:14;15.70;99.90
18593;DHT22;9426;54.118;17.948;2022-07-12T21:07:38;15.70;99.90
18593;DHT22;9426;54.118;17.948;2022-07-12T21:13:02;15.60;99.90
18593;DHT22;9426;54.118;17.948;2022-07-12T21:18:26;15.50;99.90
18593;DHT22;9426;54.118;17.948;2022-07-12T21:23:50;15.50;99.90
18593;DHT22;9426;54.118;17.948;2022-07-12T21:29:15;15.40;99.90
18593;DHT22;9426;54.118;17.948;2022-07-12T21:34:38;15.50;99.90
18593;DHT22;9426;54.118;17.948;2022-07-12T21:40:02;15.40;99.90
18593;DHT22;9426;54.118;17.948;2022-07-12T21:45:27;15.40;99.90
18593;DHT22;9426;54.118;17.948;2022-07-12T21:50:51;15.40;99.90
18593;DHT22;9426;54.118;17.948;2022-07-12T21:56:14;15.30;99.90
18593;DHT22;9426;54.118;17.948;2022-07-12T22:01:39;15.30;99.90
18593;DHT22;9426;54.118;17.948;2022-07-12T22:07:03;15.40;99.90
18593;DHT22;9426;54.118;17.948;2022-07-12T22:12:26;15.40;99.90
18593;DHT22;9426;54.118;17.948;2022-07-12T22:17:51;15.30;99.90
18593;DHT22;9426;54.118;17.948;2022-07-12T22:23:14;15.40;99.90
18593;DHT22;9426;54.118;17.948;2022-07-12T22:28:37;15.40;99.90
18593;DHT22;9426;54.118;17.948;2022-07-12T22:34:02;15.30;99.90
18593;DHT22;9426;54.118;17.948;2022-07-12T22:39:25;15.30;99.90
18593;DHT22;9426;54.118;17.948;2022-07-12T22:44:49;15.30;99.90
18593;DHT22;9426;54.118;17.948;2022-07-12T22:50:14;15.20;99.90
18593;DHT22;9426;54.118;17.948;2022-07-12T22:55:59;15.10;99.90
18593;DHT22;9426;54.118;17.948;2022-07-12T23:01:26;15.20;99.90
18593;DHT22;9426;54.118;17.948;2022-07-12T23:06:54;15.20;99.90
18593;DHT22;9426;54.118;17.948;2022-07-12T23:12:18;15.20;99.90
18593;DHT22;9426;54.118;17.948;2022-07-12T23:17:41;15.20;99.90
18593;DHT22;9426;54.118;17.948;2022-07-12T23:23:06;15.20;99.90
18593;DHT22;9426;54.118;17.948;2022-07-12T23:28:30;15.20;99.90
18593;DHT22;9426;54.118;17.948;2022-07-12T23:33:53;15.20;99.90
18593;DHT22;9426;54.118;17.948;2022-07-12T23:39:18;15.20;99.90
18593;DHT22;9426;54.118;17.948;2022-07-12T23:44:41;15.20;99.90
18593;DHT22;9426;54.118;17.948;2022-07-12T23:50:06;15.10;99.90
18593;DHT22;9426;54.118;17.948;2022-07-12T23:55:31;15.00;99.90
